Sanar 4 — UBPI3 — position and weather

sailwx.info

Track history (hours):
 
Tides and Currents Weather Stations Pressure Air Temp Water Temp Dewpoint Dewpoint Depression Visibility Wind Speed Wind Dir Waves Ship Positions

Sanar 4

Last reported at 2018-May-19 11:52 UTC. Time now 2018-May-20 14:11 UTC.
Position N 45°33' E 036°49'.

; draft 2.9 m.

Type: Ship. MMSI: 273359760.

Date/timePositionNaut miles runAvg speedWind from/ knotsBaromVisibWave heightAir tempDewpointWater temp
2018-May-19 11:52N 45°33' E 036°49'11 7.4
2018-May-19 10:26N 45°24' E 036°41'3 7.4
2018-May-19 10:00N 45°21' E 036°40'4 7.9
2018-May-19 09:29N 45°20' E 036°34'1 0.0
2018-May-18 07:16N 45°19' E 036°33'2 6.3
2018-May-18 07:00N 45°20' E 036°36'3 5.8
2018-May-18 06:30N 45°21' E 036°39'  
2018-May-09 22:15N 45°29' E 036°44'2 7.5
2018-May-09 21:59N 45°27' E 036°42'4 7.6
2018-May-09 21:26N 45°23' E 036°40'3 6.6
2018-May-09 21:00N 45°21' E 036°38'4 8.6
2018-May-09 20:29N 45°19' E 036°33'  
Track history (hours):
 
Tides and Currents Weather Stations Pressure Air Temp Water Temp Dewpoint Dewpoint Depression Visibility Wind Speed Wind Dir Waves Ship Positions

Sanar 4

Last reported at 2018-May-19 11:52 UTC. Time now 2018-May-20 14:11 UTC.
Position N 45°33' E 036°49'.

; draft 2.9 m.

Type: Ship. MMSI: 273359760.

Date/timePositionNaut miles runAvg speedWind from/ knotsBaromVisibWave heightAir tempDewpointWater temp
2018-May-19 11:52N 45°33' E 036°49'11 7.4
2018-May-19 10:26N 45°24' E 036°41'3 7.4
2018-May-19 10:00N 45°21' E 036°40'4 7.9
2018-May-19 09:29N 45°20' E 036°34'1 0.0
2018-May-18 07:16N 45°19' E 036°33'2 6.3
2018-May-18 07:00N 45°20' E 036°36'3 5.8
2018-May-18 06:30N 45°21' E 036°39'  
2018-May-09 22:15N 45°29' E 036°44'2 7.5
2018-May-09 21:59N 45°27' E 036°42'4 7.6
2018-May-09 21:26N 45°23' E 036°40'3 6.6
2018-May-09 21:00N 45°21' E 036°38'4 8.6
2018-May-09 20:29N 45°19' E 036°33'  

Dump ship's entire track history